PWSweather.com
Personal Weather Stations
Station Observations

SkegnessGB

Lat: 53.147585, Lon: 0.345774

Elevation: 18

Station Type: Fine Offset WH3080

http://www.skegnessweather.info/

High Low Average
Temperature 32.0°F0.0°C 27.9°F-2.3°C 29.9°F-1.2°C
Dew Point 23.3°F-4.8°C 20.4°F-6.4°C 22.1°F-5.5°C
Winds 22.5 mph 36.2 kmh 6.4 mph 10.3 kmh 14.0 mph SSE22.5 kmh SSE
Wind Gusts 26.8 mph43.1 kmh 8.4 mph13.5 kmh 19.0 mph30.6 kmh
Humidity 76% 66% 72%
Pressure 29.54 in1000.3 mb 29.38 in994.9 mb -
Precipitation 0.00 in0.0 mm - -
Hour Temp Dew Point Humidity Winds Wind Gusts Pressure Precip Precip Rate Daily Precip Total
12:00 AM 28.6°F-1.9°C 21.3°F-5.9°C 74% 12.8 mph N20.6 kmh N 21.7 mph34.9 kmh 29.53 in1000.0 mb 0.00 in0.0 mm 0.00 in0.0 mm 0.00 in0.0 mm
12:10 AM 28.6°F-1.9°C 21.0°F-6.1°C 73% 15.6 mph N25.1 kmh N 21.7 mph34.9 kmh 29.54 in1000.3 mb 0.00 in0.0 mm 0.00 in0.0 mm 0.00 in0.0 mm
12:20 AM 28.4°F-2.0°C 20.8°F-6.2°C 73% 16.3 mph N26.2 kmh N 17.5 mph28.2 kmh 29.54 in1000.3 mb 0.00 in0.0 mm 0.00 in0.0 mm 0.00 in0.0 mm
12:30 AM 28.4°F-2.0°C 21.2°F-6.0°C 74% 13.2 mph N21.2 kmh N 16.7 mph26.9 kmh 29.53 in1000.0 mb 0.00 in0.0 mm 0.00 in0.0 mm 0.00 in0.0 mm
12:40 AM 28.4°F-2.0°C 21.2°F-6.0°C 74% 14.5 mph NNE23.3 kmh NNE 19.2 mph30.9 kmh 29.53 in1000.0 mb 0.00 in0.0 mm 0.00 in0.0 mm 0.00 in0.0 mm
12:50 AM 28.4°F-2.0°C 21.2°F-6.0°C 74% 13.1 mph NW21.1 kmh NW 15.0 mph24.1 kmh 29.53 in1000.0 mb 0.00 in0.0 mm 0.00 in0.0 mm 0.00 in0.0 mm
01:00 AM 28.4°F-2.0°C 21.2°F-6.0°C 74% 13.7 mph N22.0 kmh N 20.2 mph32.5 kmh 29.52 in999.7 mb 0.00 in0.0 mm 0.00 in0.0 mm 0.00 in0.0 mm
01:10 AM 28.4°F-2.0°C 21.2°F-6.0°C 74% 13.7 mph NNW22.0 kmh NNW 18.5 mph29.8 kmh 29.52 in999.7 mb 0.00 in0.0 mm 0.00 in0.0 mm 0.00 in0.0 mm
01:20 AM 28.2°F-2.1°C 21.0°F-6.1°C 74% 13.8 mph NE22.2 kmh NE 16.7 mph26.9 kmh 29.52 in999.7 mb 0.00 in0.0 mm 0.00 in0.0 mm 0.00 in0.0 mm
01:30 AM 28.2°F-2.1°C 21.0°F-6.1°C 74% 12.1 mph NNE19.5 kmh NNE 20.2 mph32.5 kmh 29.51 in999.3 mb 0.00 in0.0 mm 0.00 in0.0 mm 0.00 in0.0 mm
01:40 AM 28.2°F-2.1°C 21.0°F-6.1°C 74% 13.5 mph NNW21.7 kmh NNW 20.2 mph32.5 kmh 29.51 in999.3 mb 0.00 in0.0 mm 0.00 in0.0 mm 0.00 in0.0 mm
01:50 AM 28.2°F-2.1°C 21.3°F-5.9°C 75% 12.8 mph N20.6 kmh N 18.5 mph29.8 kmh 29.51 in999.3 mb 0.00 in0.0 mm 0.00 in0.0 mm 0.00 in0.0 mm
02:00 AM 28.2°F-2.1°C 21.6°F-5.8°C 76% 15.3 mph NE24.6 kmh NE 19.2 mph30.9 kmh 29.51 in999.3 mb 0.00 in0.0 mm 0.00 in0.0 mm 0.00 in0.0 mm
02:10 AM 28.0°F-2.2°C 21.1°F-6.1°C 75% 15.3 mph NNE24.6 kmh NNE 25.8 mph41.5 kmh 29.51 in999.3 mb 0.00 in0.0 mm 0.00 in0.0 mm 0.00 in0.0 mm
02:20 AM 28.0°F-2.2°C 21.1°F-6.1°C 75% 15.1 mph NNE24.3 kmh NNE 18.5 mph29.8 kmh 29.50 in999.0 mb 0.00 in0.0 mm 0.00 in0.0 mm 0.00 in0.0 mm
02:30 AM 27.9°F-2.3°C 21.0°F-6.1°C 75% 13.3 mph N21.4 kmh N 22.6 mph36.4 kmh 29.50 in999.0 mb 0.00 in0.0 mm 0.00 in0.0 mm 0.00 in0.0 mm
02:40 AM 27.9°F-2.3°C 20.6°F-6.3°C 74% 13.2 mph NNW21.2 kmh NNW 20.2 mph32.5 kmh 29.50 in999.0 mb 0.00 in0.0 mm 0.00 in0.0 mm 0.00 in0.0 mm
02:50 AM 27.9°F-2.3°C 21.0°F-6.1°C 75% 16.8 mph N27.0 kmh N 21.7 mph34.9 kmh 29.49 in998.6 mb 0.00 in0.0 mm 0.00 in0.0 mm 0.00 in0.0 mm
03:00 AM 27.9°F-2.3°C 21.0°F-6.1°C 75% 17.2 mph NE27.7 kmh NE 22.6 mph36.4 kmh 29.49 in998.6 mb 0.00 in0.0 mm 0.00 in0.0 mm 0.00 in0.0 mm
03:10 AM 27.9°F-2.3°C 21.0°F-6.1°C 75% 17.2 mph NE27.7 kmh NE 20.2 mph32.5 kmh 29.48 in998.3 mb 0.00 in0.0 mm 0.00 in0.0 mm 0.00 in0.0 mm
03:20 AM 28.0°F-2.2°C 21.4°F-5.9°C 76% 15.6 mph NNW25.1 kmh NNW 15.0 mph24.1 kmh 29.48 in998.3 mb 0.00 in0.0 mm 0.00 in0.0 mm 0.00 in0.0 mm
03:30 AM 28.0°F-2.2°C 21.4°F-5.9°C 76% 14.7 mph NW23.7 kmh NW 19.2 mph30.9 kmh 29.48 in998.3 mb 0.00 in0.0 mm 0.00 in0.0 mm 0.00 in0.0 mm
03:40 AM 28.0°F-2.2°C 21.4°F-5.9°C 76% 18.1 mph NNE29.1 kmh NNE 24.4 mph39.3 kmh 29.48 in998.3 mb 0.00 in0.0 mm 0.00 in0.0 mm 0.00 in0.0 mm
03:50 AM 28.0°F-2.2°C 21.4°F-5.9°C 76% 17.2 mph NNE27.7 kmh NNE 20.2 mph32.5 kmh 29.48 in998.3 mb 0.00 in0.0 mm 0.00 in0.0 mm 0.00 in0.0 mm
04:00 AM 28.0°F-2.2°C 21.1°F-6.1°C 75% 16.5 mph N26.6 kmh N 20.2 mph32.5 kmh 29.47 in998.0 mb 0.00 in0.0 mm 0.00 in0.0 mm 0.00 in0.0 mm
04:10 AM 28.2°F-2.1°C 21.6°F-5.8°C 76% 14.9 mph NE24.0 kmh NE 19.2 mph30.9 kmh 29.47 in998.0 mb 0.00 in0.0 mm 0.00 in0.0 mm 0.00 in0.0 mm
04:20 AM 28.4°F-2.0°C 21.8°F-5.7°C 76% 17.5 mph NE28.2 kmh NE 20.9 mph33.6 kmh 29.47 in998.0 mb 0.00 in0.0 mm 0.00 in0.0 mm 0.00 in0.0 mm
04:30 AM 28.6°F-1.9°C 22.0°F-5.6°C 76% 16.9 mph N27.2 kmh N 25.1 mph40.4 kmh 29.46 in997.6 mb 0.00 in0.0 mm 0.00 in0.0 mm 0.00 in0.0 mm
04:40 AM 28.6°F-1.9°C 22.0°F-5.6°C 76% 15.3 mph NNE24.6 kmh NNE 20.2 mph32.5 kmh 29.46 in997.6 mb 0.00 in0.0 mm 0.00 in0.0 mm 0.00 in0.0 mm
04:50 AM 28.9°F-1.7°C 22.0°F-5.6°C 75% 19.4 mph NNE31.2 kmh NNE 24.4 mph39.3 kmh 29.46 in997.6 mb 0.00 in0.0 mm 0.00 in0.0 mm 0.00 in0.0 mm
05:00 AM 28.9°F-1.7°C 22.0°F-5.6°C 75% 17.0 mph N27.4 kmh N 19.2 mph30.9 kmh 29.46 in997.6 mb 0.00 in0.0 mm 0.00 in0.0 mm 0.00 in0.0 mm
05:10 AM 28.9°F-1.7°C 21.7°F-5.7°C 74% 15.2 mph NNE24.5 kmh NNE 16.0 mph25.7 kmh 29.46 in997.6 mb 0.00 in0.0 mm 0.00 in0.0 mm 0.00 in0.0 mm
05:20 AM 28.9°F-1.7°C 21.4°F-5.9°C 73% 17.9 mph N28.8 kmh N 23.4 mph37.7 kmh 29.45 in997.3 mb 0.00 in0.0 mm 0.00 in0.0 mm 0.00 in0.0 mm
05:30 AM 29.1°F-1.6°C 21.5°F-5.8°C 73% 19.3 mph N31.1 kmh N 23.4 mph37.7 kmh 29.45 in997.3 mb 0.00 in0.0 mm 0.00 in0.0 mm 0.00 in0.0 mm
05:40 AM 29.3°F-1.5°C 21.7°F-5.7°C 73% 17.3 mph NNE27.8 kmh NNE 23.4 mph37.7 kmh 29.45 in997.3 mb 0.00 in0.0 mm 0.00 in0.0 mm 0.00 in0.0 mm
05:50 AM 29.3°F-1.5°C 21.4°F-5.9°C 72% 18.5 mph N29.8 kmh N 21.7 mph34.9 kmh 29.45 in997.3 mb 0.00 in0.0 mm 0.00 in0.0 mm 0.00 in0.0 mm
06:00 AM 29.3°F-1.5°C 21.4°F-5.9°C 72% 16.1 mph NE25.9 kmh NE 21.7 mph34.9 kmh 29.45 in997.3 mb 0.00 in0.0 mm 0.00 in0.0 mm 0.00 in0.0 mm
06:10 AM 29.3°F-1.5°C 20.4°F-6.4°C 69% 17.5 mph NE28.2 kmh NE 20.2 mph32.5 kmh 29.45 in997.3 mb 0.00 in0.0 mm 0.00 in0.0 mm 0.00 in0.0 mm
06:20 AM 29.3°F-1.5°C 20.4°F-6.4°C 69% 18.0 mph N29.0 kmh N 24.4 mph39.3 kmh 29.45 in997.3 mb 0.00 in0.0 mm 0.00 in0.0 mm 0.00 in0.0 mm
06:30 AM 29.3°F-1.5°C 20.4°F-6.4°C 69% 19.8 mph N31.9 kmh N 23.4 mph37.7 kmh 29.44 in997.0 mb 0.00 in0.0 mm 0.00 in0.0 mm 0.00 in0.0 mm
06:40 AM 29.3°F-1.5°C 21.1°F-6.1°C 71% 18.1 mph NNE29.1 kmh NNE 26.8 mph43.1 kmh 29.44 in997.0 mb 0.00 in0.0 mm 0.00 in0.0 mm 0.00 in0.0 mm
06:50 AM 29.3°F-1.5°C 20.7°F-6.3°C 70% 19.4 mph N31.2 kmh N 20.9 mph33.6 kmh 29.44 in997.0 mb 0.00 in0.0 mm 0.00 in0.0 mm 0.00 in0.0 mm
07:00 AM 29.5°F-1.4°C 21.2°F-6.0°C 71% 19.1 mph NNE30.7 kmh NNE 25.1 mph40.4 kmh 29.44 in997.0 mb 0.00 in0.0 mm 0.00 in0.0 mm 0.00 in0.0 mm
07:10 AM 29.5°F-1.4°C 21.6°F-5.8°C 72% 22.5 mph E36.2 kmh E 20.9 mph33.6 kmh 29.45 in997.3 mb 0.00 in0.0 mm 0.00 in0.0 mm 0.00 in0.0 mm
07:20 AM 29.5°F-1.4°C 21.2°F-6.0°C 71% 16.9 mph NNE27.2 kmh NNE 20.9 mph33.6 kmh 29.44 in997.0 mb 0.00 in0.0 mm 0.00 in0.0 mm 0.00 in0.0 mm
07:30 AM 29.5°F-1.4°C 21.6°F-5.8°C 72% 17.1 mph NE27.5 kmh NE 19.2 mph30.9 kmh 29.45 in997.3 mb 0.00 in0.0 mm 0.00 in0.0 mm 0.00 in0.0 mm
07:40 AM 29.7°F-1.3°C 21.7°F-5.7°C 72% 19.0 mph N30.6 kmh N 20.9 mph33.6 kmh 29.44 in997.0 mb 0.00 in0.0 mm 0.00 in0.0 mm 0.00 in0.0 mm
07:50 AM 29.5°F-1.4°C 21.2°F-6.0°C 71% 19.7 mph N31.7 kmh N 23.4 mph37.7 kmh 29.44 in997.0 mb 0.00 in0.0 mm 0.00 in0.0 mm 0.00 in0.0 mm
08:00 AM 29.7°F-1.3°C 21.4°F-5.9°C 71% 16.7 mph N26.9 kmh N 18.5 mph29.8 kmh 29.43 in996.6 mb 0.00 in0.0 mm 0.00 in0.0 mm 0.00 in0.0 mm
08:10 AM 29.7°F-1.3°C 21.7°F-5.7°C 72% 17.3 mph NNE27.8 kmh NNE 21.7 mph34.9 kmh 29.44 in997.0 mb 0.00 in0.0 mm 0.00 in0.0 mm 0.00 in0.0 mm
08:20 AM 29.7°F-1.3°C 20.7°F-6.3°C 69% 20.1 mph NE32.3 kmh NE 23.4 mph37.7 kmh 29.44 in997.0 mb 0.00 in0.0 mm 0.00 in0.0 mm 0.00 in0.0 mm
08:30 AM 29.8°F-1.2°C 21.2°F-6.0°C 70% 18.2 mph N29.3 kmh N 21.7 mph34.9 kmh 29.44 in997.0 mb 0.00 in0.0 mm 0.00 in0.0 mm 0.00 in0.0 mm
08:40 AM 30.0°F-1.1°C 21.8°F-5.7°C 71% 14.3 mph NNE23.0 kmh NNE 17.5 mph28.2 kmh 29.44 in997.0 mb 0.00 in0.0 mm 0.00 in0.0 mm 0.00 in0.0 mm
08:50 AM 30.0°F-1.1°C 21.1°F-6.1°C 69% 19.7 mph NNE31.7 kmh NNE 21.7 mph34.9 kmh 29.44 in997.0 mb 0.00 in0.0 mm 0.00 in0.0 mm 0.00 in0.0 mm
09:00 AM 30.0°F-1.1°C 21.1°F-6.1°C 69% 17.1 mph NNE27.5 kmh NNE 24.4 mph39.3 kmh 29.45 in997.3 mb 0.00 in0.0 mm 0.00 in0.0 mm 0.00 in0.0 mm
09:10 AM 30.2°F-1.0°C 21.6°F-5.8°C 70% 15.5 mph N24.9 kmh N 18.5 mph29.8 kmh 29.45 in997.3 mb 0.00 in0.0 mm 0.00 in0.0 mm 0.00 in0.0 mm
09:20 AM 30.0°F-1.1°C 21.8°F-5.7°C 71% 16.9 mph N27.2 kmh N 19.2 mph30.9 kmh 29.45 in997.3 mb 0.00 in0.0 mm 0.00 in0.0 mm 0.00 in0.0 mm
09:30 AM 30.0°F-1.1°C 21.8°F-5.7°C 71% 13.9 mph N22.4 kmh N 20.9 mph33.6 kmh 29.45 in997.3 mb 0.00 in0.0 mm 0.00 in0.0 mm 0.00 in0.0 mm
09:40 AM 30.0°F-1.1°C 21.4°F-5.9°C 70% 16.4 mph N26.4 kmh N 19.2 mph30.9 kmh 29.44 in997.0 mb 0.00 in0.0 mm 0.00 in0.0 mm 0.00 in0.0 mm
09:50 AM 30.0°F-1.1°C 20.7°F-6.3°C 68% 17.9 mph N28.8 kmh N 20.2 mph32.5 kmh 29.44 in997.0 mb 0.00 in0.0 mm 0.00 in0.0 mm 0.00 in0.0 mm
10:00 AM 30.2°F-1.0°C 20.9°F-6.2°C 68% 17.7 mph N28.5 kmh N 21.7 mph34.9 kmh 29.45 in997.3 mb 0.00 in0.0 mm 0.00 in0.0 mm 0.00 in0.0 mm
10:10 AM 30.4°F-0.9°C 21.8°F-5.7°C 70% 13.8 mph NNE22.2 kmh NNE 19.2 mph30.9 kmh 29.44 in997.0 mb 0.00 in0.0 mm 0.00 in0.0 mm 0.00 in0.0 mm
10:20 AM 30.4°F-0.9°C 21.4°F-5.9°C 69% 17.1 mph N27.5 kmh N 18.5 mph29.8 kmh 29.43 in996.6 mb 0.00 in0.0 mm 0.00 in0.0 mm 0.00 in0.0 mm
10:30 AM 30.6°F-0.8°C 21.6°F-5.8°C 69% 18.7 mph N30.1 kmh N 23.4 mph37.7 kmh 29.43 in996.6 mb 0.00 in0.0 mm 0.00 in0.0 mm 0.00 in0.0 mm
10:40 AM 30.9°F-0.6°C 21.6°F-5.8°C 68% 19.9 mph N32.0 kmh N 22.6 mph36.4 kmh 29.43 in996.6 mb 0.00 in0.0 mm 0.00 in0.0 mm 0.00 in0.0 mm
10:50 AM 30.7°F-0.7°C 21.8°F-5.7°C 69% 15.1 mph N24.3 kmh N 25.1 mph40.4 kmh 29.43 in996.6 mb 0.00 in0.0 mm 0.00 in0.0 mm 0.00 in0.0 mm
11:00 AM 31.8°F-0.1°C 22.5°F-5.3°C 68% 18.0 mph N29.0 kmh N 21.7 mph34.9 kmh 29.43 in996.6 mb 0.00 in0.0 mm 0.00 in0.0 mm 0.00 in0.0 mm
11:10 AM 32.0°F0.0°C 21.9°F-5.6°C 66% 21.6 mph N34.8 kmh N 21.7 mph34.9 kmh 29.43 in996.6 mb 0.00 in0.0 mm 0.00 in0.0 mm 0.00 in0.0 mm
11:20 AM 32.0°F0.0°C 22.6°F-5.2°C 68% 17.3 mph N27.8 kmh N 26.8 mph43.1 kmh 29.43 in996.6 mb 0.00 in0.0 mm 0.00 in0.0 mm 0.00 in0.0 mm
11:30 AM 31.6°F-0.2°C 21.9°F-5.6°C 67% 16.2 mph NNE26.1 kmh NNE 22.6 mph36.4 kmh 29.44 in997.0 mb 0.00 in0.0 mm 0.00 in0.0 mm 0.00 in0.0 mm
11:40 AM 31.5°F-0.3°C 21.8°F-5.7°C 67% 15.3 mph NE24.6 kmh NE 20.2 mph32.5 kmh 29.44 in997.0 mb 0.00 in0.0 mm 0.00 in0.0 mm 0.00 in0.0 mm
11:50 AM 31.6°F-0.2°C 22.6°F-5.2°C 69% 15.1 mph NE24.3 kmh NE 20.9 mph33.6 kmh 29.44 in997.0 mb 0.00 in0.0 mm 0.00 in0.0 mm 0.00 in0.0 mm
12:00 PM 31.1°F-0.5°C 22.5°F-5.3°C 70% 17.4 mph N28.0 kmh N 20.9 mph33.6 kmh 29.43 in996.6 mb 0.00 in0.0 mm 0.00 in0.0 mm 0.00 in0.0 mm
12:10 PM 30.6°F-0.8°C 21.9°F-5.6°C 70% 15.3 mph NNE24.6 kmh NNE 19.2 mph30.9 kmh 29.42 in996.3 mb 0.00 in0.0 mm 0.00 in0.0 mm 0.00 in0.0 mm
12:20 PM 31.3°F-0.4°C 23.0°F-5.0°C 71% 16.6 mph N26.7 kmh N 21.7 mph34.9 kmh 29.42 in996.3 mb 0.00 in0.0 mm 0.00 in0.0 mm 0.00 in0.0 mm
12:30 PM 31.6°F-0.2°C 23.0°F-5.0°C 70% 13.3 mph N21.4 kmh N 23.4 mph37.7 kmh 29.43 in996.6 mb 0.00 in0.0 mm 0.00 in0.0 mm 0.00 in0.0 mm
12:40 PM 31.1°F-0.5°C 22.1°F-5.5°C 69% 11.8 mph N19.0 kmh N 15.0 mph24.1 kmh 29.43 in996.6 mb 0.00 in0.0 mm 0.00 in0.0 mm 0.00 in0.0 mm
12:50 PM 30.7°F-0.7°C 22.4°F-5.3°C 71% 16.0 mph N25.7 kmh N 21.7 mph34.9 kmh 29.42 in996.3 mb 0.00 in0.0 mm 0.00 in0.0 mm 0.00 in0.0 mm
01:00 PM 30.9°F-0.6°C 23.0°F-5.0°C 72% 15.7 mph NE25.3 kmh NE 20.2 mph32.5 kmh 29.42 in996.3 mb 0.00 in0.0 mm 0.00 in0.0 mm 0.00 in0.0 mm
01:10 PM 31.1°F-0.5°C 23.1°F-4.9°C 72% 13.1 mph N21.1 kmh N 17.5 mph28.2 kmh 29.42 in996.3 mb 0.00 in0.0 mm 0.00 in0.0 mm 0.00 in0.0 mm
01:20 PM 30.7°F-0.7°C 22.8°F-5.1°C 72% 13.6 mph N21.9 kmh N 16.7 mph26.9 kmh 29.41 in995.9 mb 0.00 in0.0 mm 0.00 in0.0 mm 0.00 in0.0 mm
01:30 PM 31.1°F-0.5°C 23.1°F-4.9°C 72% 12.9 mph NNW20.8 kmh NNW 15.0 mph24.1 kmh 29.41 in995.9 mb 0.00 in0.0 mm 0.00 in0.0 mm 0.00 in0.0 mm
01:40 PM 31.3°F-0.4°C 23.3°F-4.8°C 72% 13.4 mph N21.6 kmh N 16.0 mph25.7 kmh 29.40 in995.6 mb 0.00 in0.0 mm 0.00 in0.0 mm 0.00 in0.0 mm
01:50 PM 30.9°F-0.6°C 23.0°F-5.0°C 72% 15.1 mph NNE24.3 kmh NNE 17.5 mph28.2 kmh 29.41 in995.9 mb 0.00 in0.0 mm 0.00 in0.0 mm 0.00 in0.0 mm
02:00 PM 30.9°F-0.6°C 23.0°F-5.0°C 72% 13.0 mph NE20.9 kmh NE 19.2 mph30.9 kmh 29.41 in995.9 mb 0.00 in0.0 mm 0.00 in0.0 mm 0.00 in0.0 mm
02:10 PM 30.6°F-0.8°C 22.6°F-5.2°C 72% 13.2 mph SW21.2 kmh SW 19.2 mph30.9 kmh 29.40 in995.6 mb 0.00 in0.0 mm 0.00 in0.0 mm 0.00 in0.0 mm
02:20 PM 30.0°F-1.1°C 22.1°F-5.5°C 72% 15.5 mph N24.9 kmh N 17.5 mph28.2 kmh 29.41 in995.9 mb 0.00 in0.0 mm 0.00 in0.0 mm 0.00 in0.0 mm
02:30 PM 30.4°F-0.9°C 22.8°F-5.1°C 73% 12.6 mph NNE20.3 kmh NNE 16.0 mph25.7 kmh 29.40 in995.6 mb 0.00 in0.0 mm 0.00 in0.0 mm 0.00 in0.0 mm
02:40 PM 30.2°F-1.0°C 22.3°F-5.4°C 72% 14.1 mph N22.7 kmh N 18.5 mph29.8 kmh 29.41 in995.9 mb 0.00 in0.0 mm 0.00 in0.0 mm 0.00 in0.0 mm
02:50 PM 30.2°F-1.0°C 22.6°F-5.2°C 73% 12.0 mph N19.3 kmh N 16.0 mph25.7 kmh 29.40 in995.6 mb 0.00 in0.0 mm 0.00 in0.0 mm 0.00 in0.0 mm
03:00 PM 30.2°F-1.0°C 22.9°F-5.1°C 74% 13.9 mph N22.4 kmh N 20.2 mph32.5 kmh 29.40 in995.6 mb 0.00 in0.0 mm 0.00 in0.0 mm 0.00 in0.0 mm
03:10 PM 30.2°F-1.0°C 22.9°F-5.1°C 74% 10.9 mph W17.5 kmh W 15.0 mph24.1 kmh 29.39 in995.3 mb 0.00 in0.0 mm 0.00 in0.0 mm 0.00 in0.0 mm
03:20 PM 30.0°F-1.1°C 22.4°F-5.3°C 73% 14.0 mph NNW22.5 kmh NNW 17.5 mph28.2 kmh 29.39 in995.3 mb 0.00 in0.0 mm 0.00 in0.0 mm 0.00 in0.0 mm
03:30 PM 30.2°F-1.0°C 22.6°F-5.2°C 73% 13.3 mph N21.4 kmh N 17.5 mph28.2 kmh 29.39 in995.3 mb 0.00 in0.0 mm 0.00 in0.0 mm 0.00 in0.0 mm
03:40 PM 30.2°F-1.0°C 22.6°F-5.2°C 73% 12.6 mph NE20.3 kmh NE 22.6 mph36.4 kmh 29.39 in995.3 mb 0.00 in0.0 mm 0.00 in0.0 mm 0.00 in0.0 mm
03:50 PM 30.2°F-1.0°C 22.6°F-5.2°C 73% 11.3 mph NW18.2 kmh NW 17.5 mph28.2 kmh 29.39 in995.3 mb 0.00 in0.0 mm 0.00 in0.0 mm 0.00 in0.0 mm
04:00 PM 30.4°F-0.9°C 22.8°F-5.1°C 73% 10.6 mph NNW17.1 kmh NNW 15.0 mph24.1 kmh 29.39 in995.3 mb 0.00 in0.0 mm 0.00 in0.0 mm 0.00 in0.0 mm
04:10 PM 30.2°F-1.0°C 22.6°F-5.2°C 73% 13.3 mph NNE21.4 kmh NNE 17.5 mph28.2 kmh 29.39 in995.3 mb 0.00 in0.0 mm 0.00 in0.0 mm 0.00 in0.0 mm
04:20 PM 30.2°F-1.0°C 22.6°F-5.2°C 73% 13.1 mph N21.1 kmh N 16.7 mph26.9 kmh 29.39 in995.3 mb 0.00 in0.0 mm 0.00 in0.0 mm 0.00 in0.0 mm
04:30 PM 30.4°F-0.9°C 22.8°F-5.1°C 73% 13.4 mph N21.6 kmh N 15.0 mph24.1 kmh 29.39 in995.3 mb 0.00 in0.0 mm 0.00 in0.0 mm 0.00 in0.0 mm
04:40 PM 30.2°F-1.0°C 22.6°F-5.2°C 73% 13.6 mph WNW21.9 kmh WNW 19.2 mph30.9 kmh 29.39 in995.3 mb 0.00 in0.0 mm 0.00 in0.0 mm 0.00 in0.0 mm
04:50 PM 30.2°F-1.0°C 22.6°F-5.2°C 73% 13.4 mph N21.6 kmh N 20.9 mph33.6 kmh 29.39 in995.3 mb 0.00 in0.0 mm 0.00 in0.0 mm 0.00 in0.0 mm
05:00 PM 30.4°F-0.9°C 22.8°F-5.1°C 73% 12.7 mph NNW20.4 kmh NNW 17.5 mph28.2 kmh 29.39 in995.3 mb 0.00 in0.0 mm 0.00 in0.0 mm 0.00 in0.0 mm
05:10 PM 30.4°F-0.9°C 22.8°F-5.1°C 73% 10.4 mph NE16.7 kmh NE 13.3 mph21.4 kmh 29.40 in995.6 mb 0.00 in0.0 mm 0.00 in0.0 mm 0.00 in0.0 mm
05:20 PM 30.6°F-0.8°C 23.3°F-4.8°C 74% 13.3 mph NW21.4 kmh NW 17.5 mph28.2 kmh 29.39 in995.3 mb 0.00 in0.0 mm 0.00 in0.0 mm 0.00 in0.0 mm
05:30 PM 30.4°F-0.9°C 22.8°F-5.1°C 73% 13.2 mph N21.2 kmh N 19.2 mph30.9 kmh 29.40 in995.6 mb 0.00 in0.0 mm 0.00 in0.0 mm 0.00 in0.0 mm
05:40 PM 30.6°F-0.8°C 22.9°F-5.1°C 73% 13.8 mph NNE22.2 kmh NNE 17.5 mph28.2 kmh 29.40 in995.6 mb 0.00 in0.0 mm 0.00 in0.0 mm 0.00 in0.0 mm
05:50 PM 30.4°F-0.9°C 22.8°F-5.1°C 73% 13.8 mph NNW22.2 kmh NNW 17.5 mph28.2 kmh 29.40 in995.6 mb 0.00 in0.0 mm 0.00 in0.0 mm 0.00 in0.0 mm
06:00 PM 30.4°F-0.9°C 23.1°F-4.9°C 74% 13.4 mph N21.6 kmh N 19.2 mph30.9 kmh 29.40 in995.6 mb 0.00 in0.0 mm 0.00 in0.0 mm 0.00 in0.0 mm
06:10 PM 30.4°F-0.9°C 22.8°F-5.1°C 73% 13.4 mph NE21.6 kmh NE 16.0 mph25.7 kmh 29.40 in995.6 mb 0.00 in0.0 mm 0.00 in0.0 mm 0.00 in0.0 mm
06:20 PM 30.6°F-0.8°C 22.9°F-5.1°C 73% 13.1 mph N21.1 kmh N 16.7 mph26.9 kmh 29.40 in995.6 mb 0.00 in0.0 mm 0.00 in0.0 mm 0.00 in0.0 mm
06:30 PM 30.6°F-0.8°C 23.3°F-4.8°C 74% 12.9 mph NNW20.8 kmh NNW 16.7 mph26.9 kmh 29.41 in995.9 mb 0.00 in0.0 mm 0.00 in0.0 mm 0.00 in0.0 mm
06:40 PM 30.6°F-0.8°C 22.9°F-5.1°C 73% 14.8 mph N23.8 kmh N 19.2 mph30.9 kmh 29.40 in995.6 mb 0.00 in0.0 mm 0.00 in0.0 mm 0.00 in0.0 mm
06:50 PM 30.6°F-0.8°C 22.9°F-5.1°C 73% 12.9 mph N20.8 kmh N 17.5 mph28.2 kmh 29.40 in995.6 mb 0.00 in0.0 mm 0.00 in0.0 mm 0.00 in0.0 mm
07:00 PM 30.6°F-0.8°C 22.9°F-5.1°C 73% 13.6 mph N21.9 kmh N 21.7 mph34.9 kmh 29.41 in995.9 mb 0.00 in0.0 mm 0.00 in0.0 mm 0.00 in0.0 mm
07:10 PM 30.6°F-0.8°C 22.9°F-5.1°C 73% 9.9 mph ENE15.9 kmh ENE 17.5 mph28.2 kmh 29.41 in995.9 mb 0.00 in0.0 mm 0.00 in0.0 mm 0.00 in0.0 mm
07:20 PM 30.6°F-0.8°C 22.9°F-5.1°C 73% 13.2 mph NNE21.2 kmh NNE 19.2 mph30.9 kmh 29.40 in995.6 mb 0.00 in0.0 mm 0.00 in0.0 mm 0.00 in0.0 mm
07:30 PM 30.6°F-0.8°C 22.9°F-5.1°C 73% 11.9 mph NE19.2 kmh NE 14.3 mph23.0 kmh 29.41 in995.9 mb 0.00 in0.0 mm 0.00 in0.0 mm 0.00 in0.0 mm
07:40 PM 30.6°F-0.8°C 22.9°F-5.1°C 73% 8.9 mph NE14.3 kmh NE 11.8 mph19.0 kmh 29.41 in995.9 mb 0.00 in0.0 mm 0.00 in0.0 mm 0.00 in0.0 mm
07:50 PM 30.6°F-0.8°C 22.9°F-5.1°C 73% 10.6 mph N17.1 kmh N 18.5 mph29.8 kmh 29.41 in995.9 mb 0.00 in0.0 mm 0.00 in0.0 mm 0.00 in0.0 mm
08:00 PM 30.6°F-0.8°C 22.9°F-5.1°C 73% 11.3 mph N18.2 kmh N 14.3 mph23.0 kmh 29.41 in995.9 mb 0.00 in0.0 mm 0.00 in0.0 mm 0.00 in0.0 mm
08:10 PM 30.6°F-0.8°C 22.9°F-5.1°C 73% 10.3 mph NW16.6 kmh NW 14.3 mph23.0 kmh 29.41 in995.9 mb 0.00 in0.0 mm 0.00 in0.0 mm 0.00 in0.0 mm
08:20 PM 30.6°F-0.8°C 22.9°F-5.1°C 73% 9.1 mph WNW14.6 kmh WNW 16.7 mph26.9 kmh 29.41 in995.9 mb 0.00 in0.0 mm 0.00 in0.0 mm 0.00 in0.0 mm
08:30 PM 30.6°F-0.8°C 22.9°F-5.1°C 73% 12.5 mph NNE20.1 kmh NNE 18.5 mph29.8 kmh 29.41 in995.9 mb 0.00 in0.0 mm 0.00 in0.0 mm 0.00 in0.0 mm
08:40 PM 30.6°F-0.8°C 23.3°F-4.8°C 74% 12.0 mph NE19.3 kmh NE 15.0 mph24.1 kmh 29.41 in995.9 mb 0.00 in0.0 mm 0.00 in0.0 mm 0.00 in0.0 mm
08:50 PM 30.6°F-0.8°C 23.3°F-4.8°C 74% 11.5 mph N18.5 kmh N 16.7 mph26.9 kmh 29.41 in995.9 mb 0.00 in0.0 mm 0.00 in0.0 mm 0.00 in0.0 mm
09:00 PM 30.6°F-0.8°C 23.3°F-4.8°C 74% 11.6 mph NNW18.7 kmh NNW 13.3 mph21.4 kmh 29.41 in995.9 mb 0.00 in0.0 mm 0.00 in0.0 mm 0.00 in0.0 mm
09:10 PM 30.6°F-0.8°C 23.3°F-4.8°C 74% 9.2 mph NW14.8 kmh NW 14.3 mph23.0 kmh 29.41 in995.9 mb 0.00 in0.0 mm 0.00 in0.0 mm 0.00 in0.0 mm
09:20 PM 30.6°F-0.8°C 22.9°F-5.1°C 73% 9.8 mph NNW15.8 kmh NNW 14.3 mph23.0 kmh 29.41 in995.9 mb 0.00 in0.0 mm 0.00 in0.0 mm 0.00 in0.0 mm
09:30 PM 30.6°F-0.8°C 22.9°F-5.1°C 73% 9.9 mph NNE15.9 kmh NNE 14.3 mph23.0 kmh 29.41 in995.9 mb 0.00 in0.0 mm 0.00 in0.0 mm 0.00 in0.0 mm
09:40 PM 30.6°F-0.8°C 22.9°F-5.1°C 73% 9.4 mph NNW15.1 kmh NNW 13.3 mph21.4 kmh 29.41 in995.9 mb 0.00 in0.0 mm 0.00 in0.0 mm 0.00 in0.0 mm
09:50 PM 30.6°F-0.8°C 22.9°F-5.1°C 73% 10.5 mph ENE16.9 kmh ENE 15.0 mph24.1 kmh 29.41 in995.9 mb 0.00 in0.0 mm 0.00 in0.0 mm 0.00 in0.0 mm
10:00 PM 30.6°F-0.8°C 22.6°F-5.2°C 72% 7.2 mph NNW11.6 kmh NNW 15.0 mph24.1 kmh 29.40 in995.6 mb 0.00 in0.0 mm 0.00 in0.0 mm 0.00 in0.0 mm
10:10 PM 30.6°F-0.8°C 22.6°F-5.2°C 72% 8.6 mph NW13.8 kmh NW 11.8 mph19.0 kmh 29.40 in995.6 mb 0.00 in0.0 mm 0.00 in0.0 mm 0.00 in0.0 mm
10:20 PM 30.6°F-0.8°C 22.6°F-5.2°C 72% 7.4 mph NE11.9 kmh NE 11.8 mph19.0 kmh 29.40 in995.6 mb 0.00 in0.0 mm 0.00 in0.0 mm 0.00 in0.0 mm
10:30 PM 30.2°F-1.0°C 22.6°F-5.2°C 73% 7.9 mph NNW12.7 kmh NNW 13.3 mph21.4 kmh 29.39 in995.3 mb 0.00 in0.0 mm 0.00 in0.0 mm 0.00 in0.0 mm
10:40 PM 30.0°F-1.1°C 22.7°F-5.2°C 74% 7.5 mph W12.1 kmh W 10.8 mph17.4 kmh 29.40 in995.6 mb 0.00 in0.0 mm 0.00 in0.0 mm 0.00 in0.0 mm
10:50 PM 29.8°F-1.2°C 22.6°F-5.2°C 74% 6.4 mph NNW10.3 kmh NNW 8.4 mph13.5 kmh 29.39 in995.3 mb 0.00 in0.0 mm 0.00 in0.0 mm 0.00 in0.0 mm
11:00 PM 30.0°F-1.1°C 22.7°F-5.2°C 74% 9.2 mph N14.8 kmh N 10.1 mph16.3 kmh 29.39 in995.3 mb 0.00 in0.0 mm 0.00 in0.0 mm 0.00 in0.0 mm
11:10 PM 30.2°F-1.0°C 22.9°F-5.1°C 74% 7.0 mph W11.3 kmh W 13.3 mph21.4 kmh 29.39 in995.3 mb 0.00 in0.0 mm 0.00 in0.0 mm 0.00 in0.0 mm
11:20 PM 30.4°F-0.9°C 22.8°F-5.1°C 73% 7.2 mph NW11.6 kmh NW 13.3 mph21.4 kmh 29.39 in995.3 mb 0.00 in0.0 mm 0.00 in0.0 mm 0.00 in0.0 mm
11:30 PM 30.4°F-0.9°C 22.8°F-5.1°C 73% 6.5 mph N10.5 kmh N 10.8 mph17.4 kmh 29.38 in994.9 mb 0.00 in0.0 mm 0.00 in0.0 mm 0.00 in0.0 mm
11:40 PM 30.6°F-0.8°C 22.6°F-5.2°C 72% 8.3 mph NNW13.4 kmh NNW 11.8 mph19.0 kmh 29.39 in995.3 mb 0.00 in0.0 mm 0.00 in0.0 mm 0.00 in0.0 mm
11:50 PM 30.4°F-0.9°C 22.4°F-5.3°C 72% 6.7 mph NNW10.8 kmh NNW 8.4 mph13.5 kmh 29.39 in995.3 mb 0.00 in0.0 mm 0.00 in0.0 mm 0.00 in0.0 mm